Time;durP1;ratioP1;P1;durP2;ratioP2;P2;SDS_P1;SDS_P2;PMS_P1;PMS_P2;Temp;Humidity;BMP_temperature;BMP_pressure;BME280_temperature;BME280_humidity;BME280_pressure;Samples;Min_cycle;Max_cycle;Signal;HPM_P1;HPM_P2
2022/10/31 00:01:44;;;;;;;;;;;;;;;10.55;93.58;97936.60;107635;1269;69881;-70
2022/10/31 00:04:14;;;;;;;;;;;;;;;10.51;95.09;97932.66;107645;1268;59807;-70
2022/10/31 00:06:44;;;;;;;;;;;;;;;10.49;95.37;97930.02;107688;1268;59740;-70
2022/10/31 00:09:14;;;;;;;;;;;;;;;10.46;94.77;97923.93;107691;1264;71547;-70
2022/10/31 00:11:43;;;;;;;;;;;;;;;10.41;95.76;97915.90;107675;1269;67561;-70
2022/10/31 00:14:13;;;;;;;;;;;;;;;10.42;94.79;97917.23;107665;1267;69229;-70
2022/10/31 00:16:43;;;;;;;;;;;;;;;10.43;94.52;97916.13;107662;1270;59794;-70
2022/10/31 00:19:15;;;;;;;;;;;;;;;10.43;94.18;97919.55;107671;1268;59716;-69
2022/10/31 00:21:45;;;;;;;;;;;;;;;10.42;95.59;97923.70;107634;1268;70440;-70
2022/10/31 00:24:15;;;;;;;;;;;;;;;10.39;96.19;97924.02;107620;1268;69655;-71
2022/10/31 00:26:45;;;;;;;;;;;;;;;10.37;96.26;97928.84;107648;1268;69381;-70
2022/10/31 00:29:16;;;;;;;;;;;;;;;10.36;95.87;97930.99;107664;1269;59808;-70
2022/10/31 00:31:45;;;;;;;;;;;;;;;10.36;95.32;97922.46;107609;1266;59871;-70
2022/10/31 00:34:14;;;;;;;;;;;;;;;10.36;96.17;97919.20;107654;1269;71541;-70
2022/10/31 00:36:43;;;;;;;;;;;;;;;10.34;96.30;97919.63;107650;1266;69335;-70
2022/10/31 00:39:14;;;;;;;;;;;;;;;10.33;96.54;97917.07;107623;1265;69605;-70
2022/10/31 00:41:45;;;;;;;;;;;;;;;10.33;96.28;97919.71;107649;1269;59718;-70
2022/10/31 00:44:16;;;;;;;;;;;;;;;10.32;96.81;97915.98;107673;1268;59773;-70
2022/10/31 00:46:46;;;;;;;;;;;;;;;10.28;97.14;97915.50;107724;1268;71422;-70
2022/10/31 00:49:16;;;;;;;;;;;;;;;10.27;97.31;97914.38;107655;1269;69234;-70
2022/10/31 00:51:45;;;;;;;;;;;;;;;10.24;97.49;97915.21;107649;1268;69665;-70
2022/10/31 00:54:16;;;;;;;;;;;;;;;10.23;97.50;97915.95;107631;1270;59717;-70
2022/10/31 00:56:46;;;;;;;;;;;;;;;10.23;97.53;97913.73;107669;1266;59704;-70
2022/10/31 00:59:17;;;;;;;;;;;;;;;10.22;97.74;97918.98;107651;1268;71472;-70
2022/10/31 01:01:48;;;;;;;;;;;;;;;10.21;98.16;97919.55;107653;1268;69081;-70
2022/10/31 01:04:22;;;;;;;;;;;;;;;10.21;98.10;97916.23;107583;1266;69379;-70
2022/10/31 01:06:52;;;;;;;;;;;;;;;10.21;97.85;97915.90;107673;1268;59715;-70
2022/10/31 01:09:26;;;;;;;;;;;;;;;10.20;97.98;97916.28;107650;1269;59738;-70
2022/10/31 01:12:00;;;;;;;;;;;;;;;10.18;98.60;97914.86;107661;1265;69786;-70
2022/10/31 01:14:31;;;;;;;;;;;;;;;10.18;98.75;97917.64;107634;1268;68494;-70
2022/10/31 01:17:04;;;;;;;;;;;;;;;10.19;98.67;97914.44;107682;1269;69370;-70
2022/10/31 01:19:33;;;;;;;;;;;;;;;10.19;98.15;97912.85;107640;1268;59734;-70
2022/10/31 01:22:03;;;;;;;;;;;;;;;10.19;98.28;97914.46;107655;1269;59636;-70
2022/10/31 01:24:34;;;;;;;;;;;;;;;10.18;98.27;97911.73;107678;1268;70560;-70
2022/10/31 01:27:05;;;;;;;;;;;;;;;10.18;98.72;97911.05;107643;1270;69247;-70
2022/10/31 01:29:35;;;;;;;;;;;;;;;10.20;98.77;97910.55;107631;1269;68576;-70
2022/10/31 01:32:05;;;;;;;;;;;;;;;10.20;98.79;97909.84;107651;1266;59758;-72
2022/10/31 01:34:37;;;;;;;;;;;;;;;10.22;98.63;97909.41;107675;1267;59759;-72
2022/10/31 01:37:06;;;;;;;;;;;;;;;10.24;98.69;97907.94;107681;1266;71245;-73
2022/10/31 01:39:38;;;;;;;;;;;;;;;10.24;98.86;97909.45;107653;1266;69720;-71
2022/10/31 01:42:15;;;;;;;;;;;;;;;10.26;98.79;97912.52;107618;1266;68866;-72
2022/10/31 01:44:52;;;;;;;;;;;;;;;10.27;98.92;97913.85;107658;1268;59738;-71
2022/10/31 01:47:32;;;;;;;;;;;;;;;10.28;98.82;97911.15;107663;1265;59747;-71
2022/10/31 01:50:13;;;;;;;;;;;;;;;10.29;98.49;97914.02;107674;1268;71485;-70
2022/10/31 01:52:48;;;;;;;;;;;;;;;10.29;98.55;97910.90;107638;1268;69302;-71
2022/10/31 01:55:26;;;;;;;;;;;;;;;10.30;98.58;97913.66;107670;1268;68632;-71
2022/10/31 01:58:01;;;;;;;;;;;;;;;10.31;98.60;97915.85;107582;1270;59778;-71
2022/10/31 02:00:33;;;;;;;;;;;;;;;10.30;98.70;97917.27;107692;1266;59787;-71
2022/10/31 02:03:04;;;;;;;;;;;;;;;10.29;98.42;97913.14;107656;1268;70486;-71
2022/10/31 02:05:35;;;;;;;;;;;;;;;10.30;98.37;97907.02;107646;1259;69272;-71
2022/10/31 02:08:08;;;;;;;;;;;;;;;10.31;98.48;97913.93;107566;1267;69334;-71
2022/10/31 02:10:40;;;;;;;;;;;;;;;10.31;98.42;97915.52;107621;1269;59705;-71
2022/10/31 02:13:13;;;;;;;;;;;;;;;10.30;98.80;97918.17;107595;1267;59783;-71
2022/10/31 02:15:54;;;;;;;;;;;;;;;10.30;98.90;97916.25;107627;1268;71722;-71
2022/10/31 02:18:24;;;;;;;;;;;;;;;10.29;99.00;97919.11;107583;1269;69064;-71
2022/10/31 02:21:09;;;;;;;;;;;;;;;10.29;98.84;97921.17;107567;1270;69290;-72
2022/10/31 02:23:57;;;;;;;;;;;;;;;10.29;99.21;97923.30;107654;1264;59768;-71
2022/10/31 02:26:46;;;;;;;;;;;;;;;10.28;98.49;97918.48;107658;1269;59674;-71
2022/10/31 02:29:33;;;;;;;;;;;;;;;10.28;99.03;97918.14;107628;1267;70773;-71
2022/10/31 02:32:13;;;;;;;;;;;;;;;10.28;99.19;97918.83;107632;1269;68556;-71
2022/10/31 02:34:53;;;;;;;;;;;;;;;10.28;99.14;97920.04;107597;1266;69357;-71
2022/10/31 02:37:32;;;;;;;;;;;;;;;10.25;99.41;97922.47;107646;1269;59695;-71
2022/10/31 02:40:02;;;;;;;;;;;;;;;10.25;98.91;97922.67;107668;1265;59734;-72
2022/10/31 02:43:06;;;;;;;;;;;;;;;10.24;99.67;97921.51;107616;1269;71681;-71
2022/10/31 02:45:39;;;;;;;;;;;;;;;10.23;99.93;97922.64;107642;1266;69763;-71
2022/10/31 02:48:12;;;;;;;;;;;;;;;10.21;100.00;97921.48;107623;1265;68444;-71
2022/10/31 02:50:46;;;;;;;;;;;;;;;10.20;100.00;97922.05;107636;1269;59760;-71
2022/10/31 02:53:15;;;;;;;;;;;;;;;10.21;100.00;97927.92;107628;1263;59731;-71
2022/10/31 02:55:49;;;;;;;;;;;;;;;10.22;100.00;97929.13;107619;1263;71266;-71
2022/10/31 02:58:22;;;;;;;;;;;;;;;10.20;100.00;97926.92;107644;1270;69896;-70
2022/10/31 03:00:54;;;;;;;;;;;;;;;10.19;100.00;97929.07;107695;1266;69699;-71
2022/10/31 03:03:37;;;;;;;;;;;;;;;10.18;100.00;97930.35;107791;1268;59769;-70
2022/10/31 03:06:17;;;;;;;;;;;;;;;10.17;100.00;97929.23;107654;1269;59699;-71
2022/10/31 03:08:50;;;;;;;;;;;;;;;10.14;100.00;97927.30;107664;1269;71489;-71
2022/10/31 03:11:24;;;;;;;;;;;;;;;10.14;100.00;97927.14;107690;1266;69282;-71
2022/10/31 03:13:56;;;;;;;;;;;;;;;10.11;100.00;97926.61;107660;1266;69193;-71
2022/10/31 03:16:48;;;;;;;;;;;;;;;10.10;100.00;97927.89;107643;1267;59776;-71
2022/10/31 03:19:24;;;;;;;;;;;;;;;10.08;100.00;97927.15;107649;1265;59752;-71
2022/10/31 03:21:58;;;;;;;;;;;;;;;10.07;100.00;97928.97;107658;1266;71598;-72
2022/10/31 03:24:33;;;;;;;;;;;;;;;10.08;100.00;97929.77;107713;1265;69001;-71
2022/10/31 03:27:07;;;;;;;;;;;;;;;10.09;99.92;97926.73;107612;1269;68539;-71
2022/10/31 03:29:39;;;;;;;;;;;;;;;10.11;99.20;97926.80;107598;1270;59757;-71
2022/10/31 03:32:13;;;;;;;;;;;;;;;10.12;99.08;97925.84;107625;1270;59716;-71
2022/10/31 03:34:46;;;;;;;;;;;;;;;10.12;99.71;97923.59;107643;1264;72378;-71
2022/10/31 03:37:19;;;;;;;;;;;;;;;10.12;100.00;97927.09;107595;1266;68214;-71
2022/10/31 03:39:51;;;;;;;;;;;;;;;10.12;100.00;97929.88;107673;1269;68378;-71
2022/10/31 03:42:24;;;;;;;;;;;;;;;10.13;100.00;97933.63;107653;1268;59778;-71
2022/10/31 03:45:13;;;;;;;;;;;;;;;10.14;99.66;97935.84;107699;1266;59719;-71
2022/10/31 03:47:43;;;;;;;;;;;;;;;10.16;99.59;97933.63;107659;1268;70546;-71
2022/10/31 03:50:15;;;;;;;;;;;;;;;10.16;99.02;97937.27;107693;1269;67266;-71
2022/10/31 03:52:49;;;;;;;;;;;;;;;10.17;98.47;97939.81;107639;1268;69224;-71
2022/10/31 03:55:24;;;;;;;;;;;;;;;10.17;97.61;97941.22;107604;1268;59859;-71
2022/10/31 03:58:12;;;;;;;;;;;;;;;10.17;99.07;97942.47;107672;1265;59725;-71
2022/10/31 04:00:44;;;;;;;;;;;;;;;10.16;99.49;97945.30;107674;1264;70479;-72
2022/10/31 04:03:19;;;;;;;;;;;;;;;10.16;99.84;97948.59;107651;1267;69076;-73
2022/10/31 04:05:51;;;;;;;;;;;;;;;10.15;98.91;97952.98;107644;1264;69320;-71
2022/10/31 04:08:23;;;;;;;;;;;;;;;10.15;98.69;97953.54;107704;1265;59752;-71
2022/10/31 04:10:54;;;;;;;;;;;;;;;10.15;98.23;97955.83;107567;1267;59682;-72
2022/10/31 04:13:27;;;;;;;;;;;;;;;10.15;98.27;97954.75;107685;1268;69743;-72
2022/10/31 04:16:06;;;;;;;;;;;;;;;10.16;97.79;97955.96;107662;1266;69241;-71
2022/10/31 04:18:42;;;;;;;;;;;;;;;10.14;97.17;97951.70;107609;1266;70011;-72
2022/10/31 04:21:11;;;;;;;;;;;;;;;10.14;95.67;97953.98;107678;1265;59768;-72
2022/10/31 04:23:41;;;;;;;;;;;;;;;10.12;94.40;97951.80;107665;1265;59674;-72
2022/10/31 04:26:23;;;;;;;;;;;;;;;10.12;93.92;97955.30;107637;1266;71594;-72
2022/10/31 04:28:52;;;;;;;;;;;;;;;10.10;95.59;97958.36;107648;1268;68558;-72
2022/10/31 04:31:21;;;;;;;;;;;;;;;10.09;95.40;97957.92;107644;1268;68328;-72
2022/10/31 04:33:50;;;;;;;;;;;;;;;10.09;95.49;97959.86;107650;1268;60152;-71
2022/10/31 04:36:19;;;;;;;;;;;;;;;10.08;95.20;97962.14;107683;1268;59695;-70
2022/10/31 04:38:49;;;;;;;;;;;;;;;10.08;94.64;97958.70;107659;1268;70550;-70
2022/10/31 04:41:34;;;;;;;;;;;;;;;10.07;94.87;97961.85;107612;1268;69307;-72
2022/10/31 04:44:09;;;;;;;;;;;;;;;10.07;95.83;97962.59;107668;1265;69914;-71
2022/10/31 04:46:38;;;;;;;;;;;;;;;10.07;94.56;97960.48;107663;1265;59825;-71
2022/10/31 04:49:07;;;;;;;;;;;;;;;10.07;96.57;97964.35;107630;1266;59749;-71
2022/10/31 04:51:36;;;;;;;;;;;;;;;10.05;96.52;97965.81;107709;1266;70626;-71
2022/10/31 04:54:05;;;;;;;;;;;;;;;10.06;97.19;97967.02;107623;1266;69496;-71
2022/10/31 04:56:59;;;;;;;;;;;;;;;10.05;97.12;97966.90;107632;1262;69678;-70
2022/10/31 04:59:29;;;;;;;;;;;;;;;10.05;96.49;97962.89;107643;1265;59790;-71
2022/10/31 05:01:59;;;;;;;;;;;;;;;10.05;97.50;97961.84;107684;1264;59723;-71
2022/10/31 05:04:45;;;;;;;;;;;;;;;10.06;98.99;97960.77;107624;1268;71787;-71
2022/10/31 05:07:13;;;;;;;;;;;;;;;10.04;99.89;97961.41;107787;1270;69753;-71
2022/10/31 05:09:44;;;;;;;;;;;;;;;10.03;99.95;97964.42;107649;1268;68344;-71
2022/10/31 05:12:13;;;;;;;;;;;;;;;10.03;99.84;97968.42;107669;1266;59717;-71
2022/10/31 05:15:11;;;;;;;;;;;;;;;10.03;99.78;97967.90;107663;1269;59678;-70
2022/10/31 05:18:09;;;;;;;;;;;;;;;10.02;100.00;97973.16;107350;1269;71727;-71
2022/10/31 05:20:57;;;;;;;;;;;;;;;10.02;99.75;97972.45;107680;1268;69735;-71
2022/10/31 05:23:32;;;;;;;;;;;;;;;10.03;98.87;97976.25;107659;1268;69626;-71
2022/10/31 05:26:05;;;;;;;;;;;;;;;10.03;97.49;97979.39;107659;1268;59843;-71
2022/10/31 05:28:34;;;;;;;;;;;;;;;10.00;98.87;97980.93;107685;1268;59722;-71
2022/10/31 05:31:04;;;;;;;;;;;;;;;9.98;99.76;97982.11;107659;1268;72167;-70
2022/10/31 05:33:33;;;;;;;;;;;;;;;9.97;99.48;97986.56;107629;1268;67479;-71
2022/10/31 05:36:20;;;;;;;;;;;;;;;9.95;97.80;97986.65;107619;1268;70374;-71
2022/10/31 05:38:59;;;;;;;;;;;;;;;9.95;98.35;97992.56;107597;1264;59709;-71
2022/10/31 05:41:35;;;;;;;;;;;;;;;9.93;99.83;97989.92;107631;1268;59691;-71
2022/10/31 05:44:14;;;;;;;;;;;;;;;9.91;100.00;97994.70;107668;1266;71755;-71
2022/10/31 05:46:57;;;;;;;;;;;;;;;9.92;100.00;97995.89;107658;1268;69426;-71
2022/10/31 05:49:46;;;;;;;;;;;;;;;9.92;100.00;97995.68;107535;1266;69013;-71
2022/10/31 05:52:35;;;;;;;;;;;;;;;9.93;100.00;97993.20;107612;1265;59783;-71
2022/10/31 05:55:15;;;;;;;;;;;;;;;9.92;99.60;97993.95;107651;1265;59735;-70
2022/10/31 05:57:57;;;;;;;;;;;;;;;9.93;98.10;97996.31;107620;1264;71114;-69
2022/10/31 06:00:27;;;;;;;;;;;;;;;9.94;98.61;98002.73;107697;1264;69897;-70
2022/10/31 06:03:05;;;;;;;;;;;;;;;9.94;99.99;98003.10;107612;1267;68399;-70
2022/10/31 06:05:59;;;;;;;;;;;;;;;9.92;100.00;98007.55;107618;1268;59690;-70
2022/10/31 06:08:32;;;;;;;;;;;;;;;9.92;99.79;98008.41;107607;1268;59791;-70
2022/10/31 06:11:04;;;;;;;;;;;;;;;9.93;98.93;98010.77;107645;1268;71423;-70
2022/10/31 06:13:51;;;;;;;;;;;;;;;9.97;97.99;98012.83;107620;1264;69604;-70
2022/10/31 06:16:23;;;;;;;;;;;;;;;9.99;98.50;98012.00;107605;1264;69534;-70
2022/10/31 06:18:53;;;;;;;;;;;;;;;10.02;98.61;98015.84;107577;1268;59722;-70
2022/10/31 06:21:21;;;;;;;;;;;;;;;10.05;99.73;98017.74;107662;1261;59674;-71
2022/10/31 06:23:51;;;;;;;;;;;;;;;10.07;97.73;98020.59;107643;1264;71451;-72
2022/10/31 06:26:46;;;;;;;;;;;;;;;10.10;97.82;98024.58;107556;1264;68815;-71
2022/10/31 06:29:16;;;;;;;;;;;;;;;10.12;98.42;98026.91;107681;1268;69817;-71
2022/10/31 06:32:02;;;;;;;;;;;;;;;10.13;99.69;98024.41;107610;1264;59701;-71
2022/10/31 06:34:33;;;;;;;;;;;;;;;10.14;99.70;98027.80;107667;1264;59741;-70
2022/10/31 06:37:01;;;;;;;;;;;;;;;10.15;99.80;98025.65;107637;1265;71471;-71
2022/10/31 06:39:31;;;;;;;;;;;;;;;10.14;99.96;98025.86;107655;1264;69833;-72
2022/10/31 06:42:00;;;;;;;;;;;;;;;10.11;100.00;98025.70;107693;1265;69425;-71
2022/10/31 06:44:28;;;;;;;;;;;;;;;10.10;100.00;98025.95;107669;1268;59765;-70
2022/10/31 06:47:00;;;;;;;;;;;;;;;10.11;100.00;98031.33;107675;1264;59708;-71
2022/10/31 06:49:49;;;;;;;;;;;;;;;10.12;99.80;98034.72;107669;1268;72161;-71
2022/10/31 06:52:18;;;;;;;;;;;;;;;10.15;98.50;98040.98;107643;1268;68541;-71
2022/10/31 06:54:46;;;;;;;;;;;;;;;10.15;98.88;98038.00;107637;1270;69690;-71
2022/10/31 06:57:15;;;;;;;;;;;;;;;10.16;97.73;98039.55;107618;1270;59765;-71
2022/10/31 06:59:44;;;;;;;;;;;;;;;10.18;96.13;98041.31;107657;1268;59658;-71
2022/10/31 07:02:19;;;;;;;;;;;;;;;10.20;95.34;98044.83;107594;1264;72030;-71
2022/10/31 07:04:49;;;;;;;;;;;;;;;10.24;95.58;98047.81;107688;1264;69791;-72
2022/10/31 07:07:20;;;;;;;;;;;;;;;10.27;95.94;98042.91;107616;1264;69641;-72
2022/10/31 07:09:50;;;;;;;;;;;;;;;10.29;96.77;98042.63;107648;1268;59697;-71
2022/10/31 07:12:31;;;;;;;;;;;;;;;10.28;97.46;98042.14;107592;1264;59783;-70
2022/10/31 07:15:00;;;;;;;;;;;;;;;10.25;97.51;98044.75;107665;1269;70482;-70
2022/10/31 07:17:29;;;;;;;;;;;;;;;10.22;98.44;98041.80;107631;1266;68481;-70
2022/10/31 07:20:00;;;;;;;;;;;;;;;10.24;98.82;98041.70;107668;1268;69250;-70
2022/10/31 07:22:36;;;;;;;;;;;;;;;10.27;98.58;98043.80;107677;1268;59759;-70
2022/10/31 07:25:07;;;;;;;;;;;;;;;10.29;98.47;98040.53;107639;1264;59703;-70
2022/10/31 07:27:54;;;;;;;;;;;;;;;10.30;98.45;98038.34;106480;1266;1509227;-70
2022/10/31 07:30:22;;;;;;;;;;;;;;;10.30;98.16;98036.29;107634;1270;69606;-70
2022/10/31 07:32:55;;;;;;;;;;;;;;;10.31;97.56;98036.73;107573;1264;68974;-70
2022/10/31 07:35:26;;;;;;;;;;;;;;;10.29;97.42;98041.20;107642;1264;60670;-70
2022/10/31 07:38:07;;;;;;;;;;;;;;;10.29;98.16;98040.69;107611;1268;59706;-70
2022/10/31 07:40:35;;;;;;;;;;;;;;;10.35;97.83;98037.37;107650;1265;72148;-69
2022/10/31 07:43:05;;;;;;;;;;;;;;;10.40;97.68;98038.77;107673;1265;69077;-69
2022/10/31 07:46:03;;;;;;;;;;;;;;;10.40;97.72;98038.78;107572;1264;69073;-69
2022/10/31 07:48:48;;;;;;;;;;;;;;;10.40;97.34;98041.91;107623;1268;59810;-69
2022/10/31 07:51:35;;;;;;;;;;;;;;;10.38;97.59;98042.54;107598;1268;59688;-69
2022/10/31 07:54:25;;;;;;;;;;;;;;;10.39;97.56;98040.91;107629;1264;71677;-69
2022/10/31 07:56:54;;;;;;;;;;;;;;;10.42;97.33;98036.23;107617;1265;69896;-69
2022/10/31 07:59:25;;;;;;;;;;;;;;;10.47;96.93;98040.27;107625;1268;68549;-69
2022/10/31 08:01:54;;;;;;;;;;;;;;;10.52;96.19;98040.15;107671;1268;59783;-69
2022/10/31 08:04:31;;;;;;;;;;;;;;;10.56;94.64;98046.54;107635;1266;59770;-69
2022/10/31 08:07:19;;;;;;;;;;;;;;;10.54;95.08;98049.95;107656;1268;71275;-69
2022/10/31 08:09:52;;;;;;;;;;;;;;;10.53;95.30;98052.23;107632;1268;69906;-69
2022/10/31 08:12:24;;;;;;;;;;;;;;;10.56;95.44;98051.70;107624;1266;68731;-70
2022/10/31 08:14:53;;;;;;;;;;;;;;;10.58;95.62;98049.87;107628;1264;59727;-70
2022/10/31 08:17:22;;;;;;;;;;;;;;;10.62;94.64;98050.98;107646;1264;59790;-71
2022/10/31 08:19:56;;;;;;;;;;;;;;;10.62;94.92;98049.40;107623;1264;72001;-72
2022/10/31 08:22:31;;;;;;;;;;;;;;;10.65;95.21;98048.84;107783;1268;69788;-71
2022/10/31 08:25:00;;;;;;;;;;;;;;;10.67;95.41;98055.71;107663;1268;70100;-71
2022/10/31 08:27:29;;;;;;;;;;;;;;;10.72;94.94;98055.63;107631;1266;59776;-70
2022/10/31 08:29:59;;;;;;;;;;;;;;;10.73;94.89;98059.59;107604;1270;60051;-70
2022/10/31 08:32:28;;;;;;;;;;;;;;;10.74;94.56;98060.06;107684;1266;72116;-71
2022/10/31 08:35:15;;;;;;;;;;;;;;;10.75;94.09;98059.11;107654;1264;68890;-71
2022/10/31 08:38:13;;;;;;;;;;;;;;;10.72;93.59;98061.05;107284;1268;70289;-71
2022/10/31 08:40:42;;;;;;;;;;;;;;;10.68;94.12;98063.66;107662;1266;59845;-71
2022/10/31 08:43:14;;;;;;;;;;;;;;;10.73;93.66;98065.85;107643;1266;59763;-71
2022/10/31 08:45:44;;;;;;;;;;;;;;;10.75;93.36;98065.92;107614;1266;71476;-71
2022/10/31 08:48:17;;;;;;;;;;;;;;;10.77;93.04;98068.20;107613;1269;69596;-71
2022/10/31 08:50:45;;;;;;;;;;;;;;;10.80;93.64;98068.89;107639;1270;70015;-71
2022/10/31 08:53:16;;;;;;;;;;;;;;;10.82;92.89;98069.25;107602;1270;59716;-71
2022/10/31 08:55:47;;;;;;;;;;;;;;;10.84;91.75;98066.03;107668;1265;59676;-71
2022/10/31 08:58:24;;;;;;;;;;;;;;;10.83;91.49;98066.75;107623;1268;72334;-71
2022/10/31 09:00:59;;;;;;;;;;;;;;;10.81;91.65;98069.82;107595;1268;69647;-71
2022/10/31 09:03:29;;;;;;;;;;;;;;;10.80;91.64;98072.49;107617;1268;69319;-71
2022/10/31 09:05:58;;;;;;;;;;;;;;;10.80;91.29;98077.08;107619;1268;59792;-71
2022/10/31 09:08:32;;;;;;;;;;;;;;;10.77;92.01;98076.54;107648;1268;59776;-70
2022/10/31 09:11:01;;;;;;;;;;;;;;;10.77;92.29;98079.33;107605;1269;71430;-70
2022/10/31 09:13:48;;;;;;;;;;;;;;;10.78;91.94;98077.19;107593;1264;69671;-71
2022/10/31 09:16:36;;;;;;;;;;;;;;;10.81;91.75;98076.33;107440;1268;68827;-70
2022/10/31 09:19:06;;;;;;;;;;;;;;;10.84;91.35;98075.43;107674;1268;59702;-70
2022/10/31 09:21:38;;;;;;;;;;;;;;;10.86;91.60;98076.88;107613;1265;59701;-71
2022/10/31 09:24:07;;;;;;;;;;;;;;;10.87;91.18;98078.86;107626;1268;71705;-72
2022/10/31 09:26:35;;;;;;;;;;;;;;;10.90;91.24;98079.55;107642;1268;69958;-71
2022/10/31 09:29:11;;;;;;;;;;;;;;;10.93;90.93;98083.23;107653;1261;69890;-71
2022/10/31 09:31:39;;;;;;;;;;;;;;;10.92;90.89;98083.97;107620;1268;59706;-71
2022/10/31 09:34:33;;;;;;;;;;;;;;;10.96;91.52;98085.28;107646;1268;59744;-71
2022/10/31 09:37:05;;;;;;;;;;;;;;;11.01;92.07;98083.60;107636;1268;71535;-72
2022/10/31 09:39:35;;;;;;;;;;;;;;;11.02;91.50;98087.05;107601;1268;68804;-70
2022/10/31 09:42:26;;;;;;;;;;;;;;;10.92;91.79;98086.77;107652;1264;69812;-70
2022/10/31 09:45:06;;;;;;;;;;;;;;;10.98;91.54;98086.04;107668;1268;59719;-70
2022/10/31 09:47:43;;;;;;;;;;;;;;;10.94;91.44;98083.15;107651;1264;59770;-70
2022/10/31 09:50:38;;;;;;;;;;;;;;;11.03;91.37;98085.18;107692;1268;71957;-72
2022/10/31 09:53:43;;;;;;;;;;;;;;;11.10;91.10;98088.23;107611;1266;69466;-72
2022/10/31 09:56:16;;;;;;;;;;;;;;;11.13;90.72;98087.67;107633;1265;70036;-71
2022/10/31 09:58:53;;;;;;;;;;;;;;;11.18;90.84;98088.06;107613;1271;59693;-72
2022/10/31 10:01:22;;;;;;;;;;;;;;;11.25;90.50;98089.92;107647;1268;59770;-71
2022/10/31 10:03:54;;;;;;;;;;;;;;;11.28;90.06;98087.76;107614;1268;71789;-71
2022/10/31 10:06:52;;;;;;;;;;;;;;;11.25;89.74;98091.10;107571;1268;69582;-71
2022/10/31 10:09:45;;;;;;;;;;;;;;;11.23;89.91;98088.45;107601;1268;70547;-71
2022/10/31 10:12:50;;;;;;;;;;;;;;;11.30;89.85;98084.83;107595;1268;59738;-71
2022/10/31 10:15:22;;;;;;;;;;;;;;;11.37;89.58;98090.34;107619;1268;59720;-71
2022/10/31 10:18:17;;;;;;;;;;;;;;;11.41;89.15;98086.39;107652;1264;72121;-71
2022/10/31 10:20:48;;;;;;;;;;;;;;;11.39;88.81;98087.17;107650;1268;69439;-70
2022/10/31 10:23:36;;;;;;;;;;;;;;;11.41;88.63;98082.70;107590;1264;70027;-70
2022/10/31 10:26:18;;;;;;;;;;;;;;;11.45;88.85;98077.02;107666;1266;59790;-70
2022/10/31 10:28:50;;;;;;;;;;;;;;;11.48;88.57;98078.45;107616;1264;59743;-70
2022/10/31 10:31:32;;;;;;;;;;;;;;;11.49;88.22;98074.50;107627;1266;72096;-70
2022/10/31 10:34:07;;;;;;;;;;;;;;;11.50;88.02;98074.96;107667;1268;68887;-71
2022/10/31 10:36:41;;;;;;;;;;;;;;;11.52;88.01;98071.05;107644;1268;69248;-71
2022/10/31 10:39:15;;;;;;;;;;;;;;;11.52;87.90;98068.42;107659;1268;59736;-70
2022/10/31 10:41:46;;;;;;;;;;;;;;;11.53;87.72;98067.63;107650;1268;59661;-71
2022/10/31 10:44:15;;;;;;;;;;;;;;;11.55;87.62;98068.19;107656;1264;70583;-70
2022/10/31 10:49:52;;;;;;;;;;;;;;;11.62;87.16;98067.94;107655;1265;69967;-70
2022/10/31 10:52:30;;;;;;;;;;;;;;;11.65;87.05;98065.42;107615;1265;59788;-70
2022/10/31 10:55:13;;;;;;;;;;;;;;;11.68;86.69;98065.73;107644;1264;59740;-71
2022/10/31 10:57:49;;;;;;;;;;;;;;;11.73;86.63;98061.58;107656;1268;71398;-70
2022/10/31 11:00:18;;;;;;;;;;;;;;;11.77;86.38;98059.92;107670;1268;69863;-71
2022/10/31 11:02:48;;;;;;;;;;;;;;;11.78;86.51;98057.56;107635;1269;69105;-71
2022/10/31 11:05:35;;;;;;;;;;;;;;;11.83;86.42;98054.11;107642;1264;59722;-71
2022/10/31 11:08:04;;;;;;;;;;;;;;;11.85;85.51;98054.52;107658;1268;59783;-71
2022/10/31 11:10:33;;;;;;;;;;;;;;;11.77;84.23;98053.66;107647;1268;71446;-71
2022/10/31 11:13:04;;;;;;;;;;;;;;;11.79;84.43;98056.46;107670;1268;68241;-71
2022/10/31 11:15:55;;;;;;;;;;;;;;;11.87;84.44;98055.95;107689;1268;69396;-70
2022/10/31 11:18:26;;;;;;;;;;;;;;;11.98;84.79;98056.24;107587;1268;59711;-71
2022/10/31 11:20:56;;;;;;;;;;;;;;;12.04;83.66;98058.09;107692;1268;59709;-71
2022/10/31 11:23:26;;;;;;;;;;;;;;;12.05;84.20;98058.90;107678;1266;70515;-71
2022/10/31 11:25:56;;;;;;;;;;;;;;;11.96;84.14;98062.14;107677;1268;69949;-71
2022/10/31 11:28:25;;;;;;;;;;;;;;;11.84;84.48;98061.06;107658;1259;69314;-71
2022/10/31 11:30:56;;;;;;;;;;;;;;;11.78;85.19;98060.02;107683;1264;59707;-71
2022/10/31 11:33:31;;;;;;;;;;;;;;;11.84;84.92;98058.58;107661;1268;59765;-72
2022/10/31 11:36:01;;;;;;;;;;;;;;;11.91;84.66;98056.56;107646;1268;72112;-70
2022/10/31 11:38:35;;;;;;;;;;;;;;;11.93;84.74;98055.36;107622;1265;69927;-70
2022/10/31 11:41:11;;;;;;;;;;;;;;;12.00;84.60;98052.95;107604;1264;69160;-70
2022/10/31 11:43:45;;;;;;;;;;;;;;;12.01;83.76;98046.29;107643;1268;59765;-70
2022/10/31 11:46:18;;;;;;;;;;;;;;;12.06;83.84;98046.27;107624;1268;59753;-70
2022/10/31 11:48:51;;;;;;;;;;;;;;;12.15;84.04;98047.94;107660;1265;71477;-70
2022/10/31 11:51:21;;;;;;;;;;;;;;;12.18;83.70;98045.98;107658;1265;69942;-70
2022/10/31 11:53:51;;;;;;;;;;;;;;;12.12;83.32;98047.40;107610;1264;69809;-73
2022/10/31 11:56:27;;;;;;;;;;;;;;;12.06;83.48;98044.15;107590;1268;59783;-71
2022/10/31 11:59:03;;;;;;;;;;;;;;;12.04;84.03;98046.22;107613;1268;59740;-70
2022/10/31 12:01:32;;;;;;;;;;;;;;;12.12;84.13;98044.45;107664;1268;71431;-71
2022/10/31 12:04:09;;;;;;;;;;;;;;;12.20;83.60;98043.70;107620;1268;69174;-72
2022/10/31 12:06:38;;;;;;;;;;;;;;;12.27;83.25;98045.52;107628;1269;69368;-70
2022/10/31 12:09:18;;;;;;;;;;;;;;;12.28;82.23;98040.73;107652;1265;59702;-71
2022/10/31 12:12:02;;;;;;;;;;;;;;;12.35;82.81;98042.48;107687;1268;59785;-72
2022/10/31 12:14:31;;;;;;;;;;;;;;;12.43;82.78;98044.27;107671;1268;71406;-72
2022/10/31 12:17:17;;;;;;;;;;;;;;;12.44;82.43;98046.61;107604;1268;69310;-70
2022/10/31 12:19:54;;;;;;;;;;;;;;;12.41;82.16;98041.36;107668;1267;69861;-72
2022/10/31 12:22:23;;;;;;;;;;;;;;;12.43;82.17;98040.91;107670;1264;59762;-71
2022/10/31 12:25:04;;;;;;;;;;;;;;;12.45;82.03;98044.80;107769;1264;59740;-71
2022/10/31 12:27:35;;;;;;;;;;;;;;;12.46;82.50;98042.12;107612;1264;71511;-71
2022/10/31 12:30:18;;;;;;;;;;;;;;;12.48;82.67;98044.92;107650;1268;69368;-71
2022/10/31 12:32:55;;;;;;;;;;;;;;;12.47;83.12;98039.42;107680;1268;69336;-71
2022/10/31 12:35:27;;;;;;;;;;;;;;;12.53;82.41;98040.02;107676;1264;59769;-71
2022/10/31 12:37:58;;;;;;;;;;;;;;;12.56;82.13;98036.87;107627;1268;59692;-73
2022/10/31 12:40:27;;;;;;;;;;;;;;;12.52;82.20;98037.10;107650;1265;72062;-71
2022/10/31 12:43:02;;;;;;;;;;;;;;;12.50;81.77;98040.76;107642;1268;68503;-71
2022/10/31 12:45:31;;;;;;;;;;;;;;;12.49;81.87;98035.61;107616;1264;68211;-71
2022/10/31 12:47:59;;;;;;;;;;;;;;;12.50;82.28;98036.38;107621;1265;59688;-71
2022/10/31 12:50:31;;;;;;;;;;;;;;;12.51;82.28;98036.48;107673;1268;59655;-71
2022/10/31 12:52:59;;;;;;;;;;;;;;;12.56;82.04;98033.19;107601;1268;72257;-71
2022/10/31 12:56:07;;;;;;;;;;;;;;;12.55;80.94;98036.73;107668;1268;69947;-71
2022/10/31 12:58:35;;;;;;;;;;;;;;;12.56;81.49;98037.39;107290;1269;69949;-70
2022/10/31 13:01:23;;;;;;;;;;;;;;;12.56;81.64;98037.33;107369;1272;59825;-71
2022/10/31 13:03:56;;;;;;;;;;;;;;;12.53;81.36;98037.61;107576;1268;59706;-71
2022/10/31 13:06:30;;;;;;;;;;;;;;;12.53;81.81;98032.15;107677;1268;71442;-71
2022/10/31 13:09:01;;;;;;;;;;;;;;;12.53;82.21;98030.04;107642;1266;69262;-71
2022/10/31 13:11:32;;;;;;;;;;;;;;;12.57;81.82;98030.86;107658;1268;69185;-71
2022/10/31 13:14:05;;;;;;;;;;;;;;;12.58;81.82;98030.09;107634;1265;59779;-71
2022/10/31 13:16:36;;;;;;;;;;;;;;;12.55;82.03;98029.07;107674;1268;59700;-71
2022/10/31 13:19:17;;;;;;;;;;;;;;;12.55;82.14;98029.78;107682;1264;72096;-71